Time;durP1;ratioP1;P1;durP2;ratioP2;P2;SDS_P1;SDS_P2;PMS_P1;PMS_P2;Temp;Humidity;BMP_temperature;BMP_pressure;BME280_temperature;BME280_humidity;BME280_pressure;Samples;Min_cycle;Max_cycle;Signal;HPM_P1;HPM_P2
2023/09/12 00:00:48;;;;;;;4.95;2.90;;;21.80;99.90;;;22.43;67.79;100278.81;5041264;28;20068;-87
2023/09/12 00:03:15;;;;;;;5.53;3.25;;;21.80;99.90;;;22.43;67.65;100273.38;5048329;28;20069;-87
2023/09/12 00:05:43;;;;;;;7.15;3.70;;;21.80;99.90;;;22.40;67.40;100274.78;5050322;28;20438;-87
2023/09/12 00:08:10;;;;;;;8.45;3.90;;;21.80;99.90;;;22.41;67.47;100281.84;5050085;28;20077;-87
2023/09/12 00:10:37;;;;;;;7.20;4.03;;;21.80;99.90;;;22.40;67.46;100273.97;5062350;28;20080;-87
2023/09/12 00:13:05;;;;;;;7.68;4.55;;;21.80;99.90;;;22.41;67.38;100275.59;5063567;28;20068;-87
2023/09/12 00:15:33;;;;;;;5.75;3.53;;;21.80;99.90;;;22.41;67.37;100276.41;5047182;28;20044;-87
2023/09/12 00:18:03;;;;;;;6.55;3.72;;;21.80;99.90;;;22.39;67.32;100262.28;5049844;28;20132;-87
2023/09/12 00:20:30;;;;;;;6.43;3.90;;;21.80;99.90;;;22.35;67.23;100255.81;5048393;28;21674;-87
2023/09/12 00:22:57;;;;;;;6.45;3.92;;;21.70;99.90;;;22.35;67.20;100247.66;5048710;28;20711;-87
2023/09/12 00:25:24;;;;;;;9.15;4.10;;;21.70;99.90;;;22.36;67.16;100246.59;5053562;28;20128;-87
2023/09/12 00:27:52;;;;;;;9.40;4.65;;;21.80;99.90;;;22.36;67.28;100252.03;5042300;28;20045;-87
2023/09/12 00:30:22;;;;;;;7.90;4.45;;;21.70;99.90;;;22.32;67.41;100256.44;5062687;28;20068;-87
2023/09/12 00:32:51;;;;;;;7.00;4.47;;;21.70;99.90;;;22.29;67.52;100268.69;5041948;28;20033;-87
2023/09/12 00:35:18;;;;;;;8.38;4.00;;;21.70;99.90;;;22.21;68.33;100304.69;5062949;28;20116;-87
2023/09/12 00:37:46;;;;;;;5.40;3.53;;;21.60;99.90;;;22.14;68.43;100314.28;5058849;28;20037;-87
2023/09/12 00:40:14;;;;;;;7.50;4.15;;;21.50;99.90;;;22.16;68.57;100328.41;5045297;28;20042;-87
2023/09/12 00:42:41;;;;;;;7.90;4.32;;;21.60;99.90;;;22.16;68.42;100339.25;5047307;28;20456;-87
2023/09/12 00:45:09;;;;;;;7.53;4.70;;;21.50;99.90;;;22.18;68.46;100342.47;5052598;28;20041;-87
2023/09/12 00:47:37;;;;;;;8.57;5.07;;;21.60;99.90;;;22.19;68.53;100325.06;5069873;28;20472;-87
2023/09/12 00:50:08;;;;;;;8.18;5.03;;;21.60;99.90;;;22.19;68.99;100285.13;5067563;28;20149;-87
2023/09/12 00:52:37;;;;;;;9.50;5.90;;;21.60;99.90;;;22.21;68.58;100238.66;5064506;28;20118;-87
2023/09/12 00:55:06;;;;;;;11.20;6.35;;;21.70;99.90;;;22.15;68.63;100207.22;5036846;28;20072;-87
2023/09/12 00:57:35;;;;;;;13.50;9.00;;;21.60;99.90;;;22.08;69.04;100183.94;5044085;28;20060;-87
2023/09/12 01:00:11;;;;;;;16.58;9.50;;;21.60;99.90;;;22.10;68.95;100184.44;5060710;28;20072;-87
2023/09/12 01:02:38;;;;;;;14.52;9.75;;;21.70;99.90;;;22.00;69.63;100184.59;5053576;28;20041;-87
2023/09/12 01:05:09;;;;;;;13.57;8.32;;;21.60;99.90;;;21.96;69.87;100182.75;5038240;28;20521;-87
2023/09/12 01:07:38;;;;;;;12.65;8.38;;;21.60;99.90;;;22.01;69.70;100169.94;5055413;28;20132;-87
2023/09/12 01:10:08;;;;;;;15.35;10.02;;;21.60;99.90;;;22.03;69.86;100197.59;5052594;28;20071;-87
2023/09/12 01:12:35;;;;;;;15.40;10.15;;;21.60;99.90;;;22.08;69.80;100208.38;5064374;28;20762;-87
2023/09/12 01:15:05;;;;;;;15.73;9.85;;;21.70;99.90;;;22.15;69.79;100216.19;5051948;28;20128;-87
2023/09/12 01:17:33;;;;;;;14.88;10.20;;;21.70;99.90;;;22.17;69.49;100216.72;5053288;28;20045;-87
2023/09/12 01:20:02;;;;;;;13.00;8.70;;;21.70;99.90;;;22.20;69.42;100223.44;5052516;28;20585;-87
2023/09/12 01:22:56;;;;;;;17.02;11.05;;;21.70;99.90;;;22.24;69.16;100241.59;5053160;28;20041;-87
2023/09/12 01:26:01;;;;;;;18.90;12.10;;;21.70;99.90;;;22.27;69.24;100224.69;5061861;28;20168;-87
2023/09/12 01:28:35;;;;;;;17.15;11.82;;;21.70;99.90;;;22.28;69.54;100229.03;5048463;28;20042;-87
2023/09/12 01:31:03;;;;;;;18.05;10.95;;;21.70;99.90;;;22.27;69.54;100237.47;5041834;28;20041;-87
2023/09/12 01:33:31;;;;;;;16.25;9.75;;;21.70;99.90;;;22.25;69.53;100245.94;5057179;28;20045;-87
2023/09/12 01:35:58;;;;;;;15.63;9.50;;;21.70;99.90;;;22.24;69.56;100246.22;5049085;28;20077;-87
2023/09/12 01:38:27;;;;;;;15.70;10.38;;;21.70;99.90;;;22.24;69.44;100257.06;5051765;28;20043;-87
2023/09/12 01:40:57;;;;;;;16.02;9.77;;;21.70;99.90;;;22.23;69.62;100244.59;5055282;28;20136;-87
2023/09/12 01:43:27;;;;;;;18.83;10.03;;;21.70;99.90;;;22.20;69.85;100221.53;5054346;28;20501;-87
2023/09/12 01:46:01;;;;;;;22.98;13.38;;;21.60;99.90;;;22.20;69.78;100224.25;5051216;28;20041;-87
2023/09/12 01:48:35;;;;;;;21.85;13.85;;;21.60;99.90;;;22.21;69.98;100211.50;5052444;28;20135;-87
2023/09/12 01:51:05;;;;;;;23.42;14.85;;;21.60;99.90;;;22.23;69.68;100220.16;5066564;28;20037;-87
2023/09/12 01:53:34;;;;;;;19.73;13.25;;;21.70;99.90;;;22.23;69.76;100228.31;5052231;28;20128;-87
2023/09/12 01:56:01;;;;;;;18.02;12.20;;;21.70;99.90;;;22.21;69.69;100241.38;5046468;28;20099;-87
2023/09/12 01:58:31;;;;;;;19.73;13.27;;;21.60;99.90;;;22.19;70.02;100265.31;5065357;28;20037;-87
2023/09/12 02:01:00;;;;;;;26.90;13.80;;;21.60;99.90;;;22.11;70.27;100283.09;5081624;28;20509;-87
2023/09/12 02:03:27;;;;;;;18.95;13.35;;;21.50;99.90;;;22.10;70.43;100273.25;5045104;28;20052;-87
2023/09/12 02:05:54;;;;;;;20.95;13.88;;;21.50;99.90;;;22.10;70.73;100248.81;5052142;28;20072;-87
2023/09/12 02:08:22;;;;;;;27.45;18.33;;;21.50;99.90;;;22.12;70.74;100222.22;5065529;28;20110;-87
2023/09/12 02:10:49;;;;;;;30.88;21.48;;;21.60;99.90;;;22.13;71.23;100215.69;5045824;28;20043;-87
2023/09/12 02:13:16;;;;;;;27.80;20.55;;;21.60;99.90;;;22.11;71.35;100204.31;5047529;28;20052;-88
2023/09/12 02:15:44;;;;;;;33.00;21.30;;;21.60;99.90;;;22.08;71.79;100199.44;5050903;28;20045;-88
2023/09/12 02:18:13;;;;;;;34.33;22.33;;;21.60;99.90;;;22.07;71.64;100201.34;5045922;28;20135;-87
2023/09/12 02:20:45;;;;;;;35.88;23.95;;;21.60;99.90;;;22.06;71.68;100221.47;5049734;28;20095;-87
2023/09/12 02:23:13;;;;;;;31.67;21.63;;;21.60;99.90;;;22.08;71.97;100227.38;5049274;28;20041;-87
2023/09/12 02:25:40;;;;;;;29.25;20.02;;;21.60;99.90;;;22.14;71.94;100235.50;5046479;28;20524;-87
2023/09/12 02:28:07;;;;;;;32.40;20.60;;;21.60;99.90;;;22.15;71.54;100234.38;5050397;28;20461;-87
2023/09/12 02:30:35;;;;;;;32.40;21.30;;;21.60;99.90;;;22.15;71.41;100229.75;5050844;28;20045;-87
2023/09/12 02:33:02;;;;;;;31.40;22.17;;;21.60;99.90;;;22.15;71.55;100231.66;5044809;28;20041;-87
2023/09/12 02:35:31;;;;;;;32.53;21.52;;;21.60;99.90;;;22.15;71.53;100223.53;5051299;28;20705;-87
2023/09/12 02:37:58;;;;;;;31.80;21.80;;;21.60;99.90;;;22.16;71.28;100225.16;5050491;28;20072;-87
2023/09/12 02:40:26;;;;;;;28.73;19.98;;;21.60;99.90;;;22.14;71.38;100228.16;5066614;28;20049;-87
2023/09/12 02:42:53;;;;;;;32.15;21.05;;;21.60;99.90;;;22.13;71.47;100236.59;5070386;28;20090;-87
2023/09/12 02:45:21;;;;;;;28.17;19.52;;;21.60;99.90;;;22.14;71.23;100236.31;5040552;28;20044;-87
2023/09/12 02:47:48;;;;;;;32.13;20.38;;;21.60;99.90;;;22.15;71.31;100235.19;5044147;28;20065;-87
2023/09/12 02:50:15;;;;;;;31.05;21.30;;;21.60;99.90;;;22.15;71.23;100240.63;5050727;28;20091;-87
2023/09/12 02:52:44;;;;;;;28.27;20.42;;;21.60;99.90;;;22.16;71.52;100257.75;5051191;28;20041;-87
2023/09/12 02:55:11;;;;;;;30.27;19.58;;;21.60;99.90;;;22.11;71.96;100266.78;5045316;28;20557;-87
2023/09/12 02:57:38;;;;;;;28.13;18.70;;;21.60;99.90;;;22.10;71.69;100273.25;5045426;28;20413;-87
2023/09/12 03:00:09;;;;;;;26.73;17.83;;;21.60;99.90;;;22.10;72.00;100275.97;5050361;28;20502;-87
2023/09/12 03:02:36;;;;;;;28.73;18.20;;;21.60;99.90;;;22.08;72.37;100276.28;5060556;28;20124;-87
2023/09/12 03:05:05;;;;;;;28.65;18.05;;;21.50;99.90;;;22.07;72.34;100280.09;5048563;28;20303;-87
2023/09/12 03:07:33;;;;;;;26.77;17.73;;;21.50;99.90;;;22.06;72.62;100280.41;5051026;28;20067;-87
2023/09/12 03:10:01;;;;;;;25.60;17.60;;;21.50;99.90;;;22.06;72.84;100262.19;5042301;28;20057;-87
2023/09/12 03:12:29;;;;;;;28.50;18.27;;;21.50;99.90;;;22.05;72.65;100241.56;5050928;28;20413;-87
2023/09/12 03:14:57;;;;;;;28.90;19.85;;;21.50;99.90;;;22.07;72.88;100228.50;5050695;28;20690;-87
2023/09/12 03:17:24;;;;;;;29.65;20.27;;;21.50;99.90;;;22.07;72.99;100197.81;5050159;28;20470;-87
2023/09/12 03:19:52;;;;;;;31.30;20.02;;;21.50;99.90;;;22.06;73.05;100180.72;5050752;28;20065;-87
2023/09/12 03:22:19;;;;;;;32.85;20.67;;;21.50;99.90;;;22.05;72.83;100179.06;5050725;28;20493;-87
2023/09/12 03:24:47;;;;;;;30.95;19.58;;;21.50;99.90;;;22.02;72.97;100179.69;5049949;28;20072;-87
2023/09/12 03:27:16;;;;;;;28.55;18.73;;;21.50;99.90;;;22.02;72.83;100192.47;5051697;28;20127;-87
2023/09/12 03:29:47;;;;;;;27.33;18.65;;;21.50;99.90;;;22.02;72.73;100203.31;5049188;28;20064;-87
2023/09/12 03:32:15;;;;;;;;;;;21.50;99.90;;;22.02;72.79;100208.75;5047578;28;20053;-87
2023/09/12 03:34:42;;;;;;;27.92;18.00;;;21.50;99.90;;;22.00;72.76;100213.66;5045651;28;20317;-87
2023/09/12 03:37:10;;;;;;;25.45;16.33;;;21.50;99.90;;;21.98;72.65;100205.00;5053352;28;20044;-87
2023/09/12 03:39:37;;;;;;;24.63;17.48;;;21.40;99.90;;;21.97;72.41;100197.97;5066804;28;20462;-89
2023/09/12 03:42:05;;;;;;;25.05;16.52;;;21.40;99.90;;;21.92;72.52;100192.59;5050782;28;20068;-85
2023/09/12 03:44:34;;;;;;;23.48;17.35;;;21.40;99.90;;;21.92;72.37;100184.47;5049917;28;20041;-85
2023/09/12 03:47:01;;;;;;;23.70;16.65;;;21.40;99.90;;;21.90;72.06;100168.44;5045038;28;20040;-86
2023/09/12 03:49:29;;;;;;;27.42;17.92;;;21.30;99.90;;;21.87;72.14;100176.41;5042113;28;20049;-84
2023/09/12 03:51:56;;;;;;;23.10;15.88;;;21.30;99.90;;;21.87;72.19;100179.91;5048935;28;20072;-84
2023/09/12 03:54:24;;;;;;;24.08;16.42;;;21.30;99.90;;;21.87;71.92;100168.25;5047040;28;20124;-84
2023/09/12 03:56:52;;;;;;;21.85;15.30;;;21.30;99.90;;;21.87;71.92;100179.09;5026008;28;20045;-84
2023/09/12 03:59:19;;;;;;;21.55;15.13;;;21.30;99.90;;;21.84;71.63;100169.63;5038864;28;20157;-84
2023/09/12 04:01:48;;;;;;;28.30;15.07;;;21.30;99.90;;;21.82;71.71;100163.69;5030788;28;20090;-84
2023/09/12 04:04:15;;;;;;;20.10;14.52;;;21.20;99.90;;;21.80;72.12;100160.44;5049437;28;20574;-84
2023/09/12 04:06:43;;;;;;;22.48;14.73;;;21.20;99.90;;;21.79;72.06;100151.50;5049865;28;20128;-84
2023/09/12 04:09:10;;;;;;;22.38;14.00;;;21.20;99.90;;;21.75;72.31;100155.09;5067901;28;20501;-84
2023/09/12 04:11:37;;;;;;;23.35;13.77;;;21.20;99.90;;;21.74;72.10;100148.84;5070347;28;20048;-84
2023/09/12 04:14:05;;;;;;;18.88;13.70;;;21.10;99.90;;;21.74;72.32;100148.84;5069363;28;20045;-84
2023/09/12 04:16:33;;;;;;;22.20;13.70;;;21.20;99.90;;;21.73;72.36;100146.44;5051899;28;20080;-84
2023/09/12 04:19:02;;;;;;;19.52;13.15;;;21.20;99.90;;;21.74;72.30;100145.34;5054544;28;20413;-84
2023/09/12 04:21:30;;;;;;;19.88;13.07;;;21.20;99.90;;;21.75;71.84;100144.22;5048772;28;20029;-84
2023/09/12 04:23:57;;;;;;;17.48;12.23;;;21.20;99.90;;;21.73;72.02;100143.72;5053848;28;20037;-84
2023/09/12 04:26:24;;;;;;;19.45;12.95;;;21.10;99.90;;;21.72;71.66;100144.84;5053770;28;20045;-84
2023/09/12 04:28:52;;;;;;;18.17;13.05;;;21.20;99.90;;;21.72;71.57;100139.41;5053787;28;20037;-84
2023/09/12 04:31:19;;;;;;;18.75;13.52;;;21.20;99.90;;;21.72;71.60;100139.41;5052561;28;20051;-84
2023/09/12 04:33:46;;;;;;;16.55;12.23;;;21.10;99.90;;;21.69;71.48;100131.84;5055435;28;20090;-84
2023/09/12 04:36:15;;;;;;;17.63;12.38;;;21.10;99.90;;;21.67;71.34;100132.16;5052315;28;20033;-85
2023/09/12 04:38:42;;;;;;;17.90;12.23;;;21.10;99.90;;;21.65;71.50;100142.47;5046735;28;20041;-85
2023/09/12 04:41:10;;;;;;;19.15;12.52;;;21.00;99.90;;;21.65;71.25;100136.25;5048870;28;20053;-85
2023/09/12 04:43:37;;;;;;;17.75;12.13;;;21.10;99.90;;;21.65;71.30;100149.81;5056676;28;20124;-85
2023/09/12 04:46:05;;;;;;;17.90;11.98;;;21.10;99.90;;;21.65;71.36;100153.31;5053449;28;20049;-85
2023/09/12 04:48:32;;;;;;;15.98;11.35;;;21.10;99.90;;;21.66;71.25;100160.38;5053855;28;20090;-85
2023/09/12 04:50:59;;;;;;;17.83;11.35;;;21.10;99.90;;;21.66;71.16;100162.28;5049753;28;20048;-85
2023/09/12 04:53:33;;;;;;;21.48;12.48;;;21.10;99.90;;;21.66;70.92;100163.06;5045466;28;20044;-85
2023/09/12 04:56:01;;;;;;;24.63;11.68;;;21.10;99.90;;;21.67;70.77;100159.28;5053387;28;20137;-85
2023/09/12 04:58:28;;;;;;;15.38;11.20;;;21.10;99.90;;;21.67;70.85;100170.16;5056043;28;20025;-85
2023/09/12 05:00:56;;;;;;;17.35;11.48;;;21.10;99.90;;;21.67;70.37;100172.03;5051701;28;20041;-85
2023/09/12 05:03:24;;;;;;;17.05;9.93;;;21.10;99.90;;;21.67;70.21;100172.03;5065298;28;20049;-85
2023/09/12 05:05:53;;;;;;;14.70;9.55;;;21.10;99.90;;;21.66;70.15;100162.28;5057446;28;20043;-85
2023/09/12 05:08:20;;;;;;;15.35;9.98;;;21.10;99.90;;;21.66;70.27;100159.56;5052843;28;20073;-84
2023/09/12 05:10:49;;;;;;;12.98;9.20;;;21.10;99.90;;;21.65;70.13;100166.91;5052892;28;20071;-88
2023/09/12 05:13:17;;;;;;;12.07;9.23;;;21.10;99.90;;;21.66;70.09;100167.69;5053523;28;20426;-87
2023/09/12 05:15:45;;;;;;;17.67;9.07;;;21.10;99.90;;;21.67;69.93;100174.75;5053583;28;20131;-88
2023/09/12 05:18:12;;;;;;;11.65;8.18;;;21.10;99.90;;;21.67;69.68;100175.56;5053755;28;20048;-88
2023/09/12 05:20:40;;;;;;;14.20;8.60;;;21.10;99.90;;;21.67;69.78;100185.59;5066263;28;20048;-88
2023/09/12 05:23:07;;;;;;;20.10;9.95;;;21.10;99.90;;;21.69;70.40;100197.00;5066742;28;20077;-89
2023/09/12 05:25:35;;;;;;;15.40;8.68;;;21.20;99.90;;;21.68;71.69;100195.38;5053035;28;20045;-90
2023/09/12 05:28:04;;;;;;;16.80;9.05;;;21.20;99.90;;;21.66;71.64;100170.41;5052488;28;20120;-91
2023/09/12 05:30:32;;;;;;;28.30;10.75;;;21.10;99.90;;;21.64;72.50;100142.78;5035899;28;20048;-90
2023/09/12 05:33:00;;;;;;;19.85;10.35;;;21.10;99.90;;;21.62;72.83;100142.25;5048553;28;20049;-90
2023/09/12 05:35:27;;;;;;;18.33;10.30;;;21.10;99.90;;;21.55;72.93;100156.19;5052758;28;20458;-89
2023/09/12 05:37:55;;;;;;;16.50;10.25;;;21.00;99.90;;;21.55;72.84;100158.91;5060354;28;20086;-90
2023/09/12 05:40:22;;;;;;;15.43;10.20;;;21.00;99.90;;;21.55;73.12;100165.13;5053258;28;20052;-90
2023/09/12 05:42:49;;;;;;;16.63;9.55;;;21.00;99.90;;;21.54;73.34;100166.22;5050866;28;20064;-90
2023/09/12 05:45:18;;;;;;;17.13;10.32;;;21.00;99.90;;;21.53;73.81;100169.25;5069153;28;20051;-86
2023/09/12 05:47:45;;;;;;;15.55;9.63;;;21.00;99.90;;;21.51;73.80;100166.81;5056844;28;20415;-87
2023/09/12 05:50:13;;;;;;;14.43;9.95;;;21.00;99.90;;;21.52;73.84;100179.28;5051672;28;20053;-86
2023/09/12 05:52:45;;;;;;;16.88;10.40;;;21.00;99.90;;;21.52;73.70;100190.16;5043953;28;20049;-86
2023/09/12 05:55:14;;;;;;;15.40;10.20;;;21.00;99.90;;;21.53;73.63;100199.91;5051326;28;20053;-86
2023/09/12 05:57:41;;;;;;;14.27;9.50;;;20.90;99.90;;;21.50;74.01;100208.63;5047375;28;20087;-86
2023/09/12 06:00:14;;;;;;;17.05;10.15;;;20.90;99.90;;;21.46;74.69;100215.72;5049566;28;20044;-86
2023/09/12 06:02:45;;;;;;;15.98;10.73;;;20.90;99.90;;;21.45;75.25;100226.88;5048975;28;20106;-86
2023/09/12 06:05:13;;;;;;;17.02;10.90;;;20.90;99.90;;;21.42;75.16;100236.38;5068293;28;20497;-86
2023/09/12 06:07:40;;;;;;;16.13;10.55;;;20.90;99.90;;;21.38;75.41;100246.22;5052154;28;20041;-84
2023/09/12 06:10:09;;;;;;;15.98;10.38;;;20.80;99.90;;;21.38;76.22;100259.78;5048773;28;20045;-83
2023/09/12 06:12:37;;;;;;;15.63;10.18;;;20.80;99.90;;;21.37;76.52;100266.28;5054197;28;20116;-84
2023/09/12 06:15:05;;;;;;;19.25;11.68;;;20.80;99.90;;;21.38;76.08;100273.34;5045343;28;20055;-83
2023/09/12 06:17:32;;;;;;;15.82;10.63;;;20.80;99.90;;;21.41;75.31;100288.22;5047241;28;20025;-83
2023/09/12 06:20:01;;;;;;;15.20;10.07;;;20.90;99.90;;;21.39;75.71;100331.94;5044412;28;20053;-84
2023/09/12 06:22:28;;;;;;;18.15;9.95;;;20.90;99.90;;;21.29;75.91;100367.28;5052671;28;20037;-83
2023/09/12 06:24:56;;;;;;;15.57;9.52;;;20.80;99.90;;;21.14;76.68;100368.22;5030568;28;20041;-84
2023/09/12 06:27:23;;;;;;;15.85;10.43;;;20.70;99.90;;;21.15;76.57;100363.59;5052509;28;20463;-86
2023/09/12 06:29:51;;;;;;;20.65;12.48;;;20.70;99.90;;;21.01;77.44;100366.94;5053500;28;20037;-86
2023/09/12 06:32:19;;;;;;;26.77;18.05;;;20.70;99.90;;;20.93;78.82;100348.56;5040680;28;20084;-86
2023/09/12 06:34:47;;;;;;;40.03;21.15;;;20.60;99.90;;;21.01;79.32;100322.75;5041697;28;20048;-83
2023/09/12 06:37:15;;;;;;;37.75;21.83;;;20.60;99.90;;;21.05;78.84;100281.22;5044733;28;20558;-83
2023/09/12 06:39:43;;;;;;;22.30;14.20;;;20.60;99.90;;;21.08;78.79;100255.44;5052242;28;20112;-83
2023/09/12 06:42:11;;;;;;;21.50;13.23;;;20.70;99.90;;;21.06;78.46;100279.31;5036450;28;20077;-83
2023/09/12 06:44:38;;;;;;;22.13;12.23;;;20.60;99.90;;;21.07;77.87;100294.50;5038788;28;20132;-83
2023/09/12 06:47:06;;;;;;;19.73;10.18;;;20.60;99.90;;;21.08;77.82;100291.53;5054444;28;20128;-83
2023/09/12 06:49:35;;;;;;;12.90;6.43;;;20.60;99.90;;;21.10;76.93;100299.38;5044372;28;20139;-83
2023/09/12 06:52:03;;;;;;;11.18;5.32;;;20.60;99.90;;;21.12;76.26;100296.34;5081976;28;20103;-83
2023/09/12 06:54:33;;;;;;;15.65;4.95;;;20.60;99.90;;;21.11;76.28;100265.72;5028506;28;20045;-83
2023/09/12 06:57:00;;;;;;;10.85;5.05;;;20.60;99.90;;;21.08;75.52;100240.00;5048882;28;20045;-83
2023/09/12 06:59:28;;;;;;;16.67;5.20;;;20.60;99.90;;;21.11;75.51;100251.34;5047142;28;20391;-83
2023/09/12 07:01:55;;;;;;;9.57;5.05;;;20.60;99.90;;;21.11;75.57;100260.28;5048201;28;20131;-83
2023/09/12 07:04:23;;;;;;;11.48;5.05;;;20.60;99.90;;;21.11;75.60;100259.50;5045384;28;20653;-83
2023/09/12 07:06:51;;;;;;;16.60;6.20;;;20.60;99.90;;;21.11;76.25;100248.63;5043896;28;20525;-83
2023/09/12 07:09:19;;;;;;;11.15;5.35;;;20.60;99.90;;;21.09;76.21;100274.16;5068007;28;20048;-83
2023/09/12 07:11:49;;;;;;;10.82;4.95;;;20.60;99.90;;;21.10;76.00;100253.25;5053184;28;20083;-83
2023/09/12 07:14:16;;;;;;;9.03;4.50;;;20.60;99.90;;;21.11;75.87;100252.16;5053742;28;20094;-83
2023/09/12 07:16:43;;;;;;;11.30;4.70;;;20.60;99.90;;;21.06;75.94;100257.63;5045089;28;20041;-83
2023/09/12 07:19:11;;;;;;;10.55;5.13;;;20.50;99.90;;;21.06;75.81;100241.34;5051589;28;20136;-83
2023/09/12 07:21:38;;;;;;;11.38;4.80;;;20.50;99.90;;;21.06;75.85;100242.16;5052422;28;20056;-83
2023/09/12 07:24:06;;;;;;;10.10;5.20;;;20.50;99.90;;;21.07;75.92;100240.25;5056623;28;20132;-82
2023/09/12 07:26:34;;;;;;;10.40;4.78;;;20.50;99.90;;;21.06;76.12;100250.31;5052708;28;20478;-84
2023/09/12 07:29:05;;;;;;;11.93;5.10;;;20.50;99.90;;;21.05;76.45;100243.25;5048338;28;20049;-84
2023/09/12 07:31:32;;;;;;;;;;;20.50;99.90;;;21.07;76.34;100242.97;5052773;28;20041;-84
2023/09/12 07:33:59;;;;;;;13.43;5.20;;;20.50;99.90;;;21.03;76.28;100242.75;5051535;28;20024;-84
2023/09/12 07:36:26;;;;;;;11.32;5.32;;;20.50;99.90;;;21.05;76.91;100243.25;5050887;28;20080;-83
2023/09/12 07:38:54;;;;;;;14.35;5.60;;;20.50;99.90;;;21.10;77.29;100239.69;5059750;28;20045;-83
2023/09/12 07:41:21;;;;;;;8.18;4.53;;;20.60;99.90;;;21.11;76.51;100233.16;5050720;28;20068;-83
2023/09/12 07:43:48;;;;;;;10.93;4.90;;;20.60;99.90;;;21.12;77.25;100226.66;5052277;28;20037;-83
2023/09/12 07:46:17;;;;;;;9.45;4.20;;;20.60;99.90;;;21.16;77.06;100221.47;5052276;28;20074;-83
2023/09/12 07:48:44;;;;;;;7.82;3.90;;;20.60;99.90;;;21.20;77.13;100225.22;5052045;28;20511;-86
2023/09/12 07:51:17;;;;;;;8.20;3.42;;;20.80;99.90;;;21.25;77.01;100217.84;5043778;28;20041;-86
2023/09/12 07:53:44;;;;;;;8.77;4.05;;;20.80;99.90;;;21.27;78.07;100228.38;5078490;28;20046;-84
2023/09/12 07:56:12;;;;;;;7.63;4.13;;;20.80;99.90;;;21.27;78.65;100223.75;5050084;28;20044;-83
2023/09/12 07:58:39;;;;;;;10.98;4.70;;;20.80;99.90;;;21.33;79.19;100225.38;5065674;28;20056;-83
2023/09/12 08:01:07;;;;;;;7.95;4.28;;;20.90;99.90;;;21.40;79.31;100224.22;5048618;28;20041;-83
2023/09/12 08:03:38;;;;;;;13.00;4.88;;;21.00;99.90;;;21.44;79.16;100220.63;5044768;28;20136;-83
2023/09/12 08:06:05;;;;;;;;;;;21.00;99.90;;;21.47;80.05;100225.50;5035060;28;20095;-83
2023/09/12 08:08:33;;;;;;;9.73;4.55;;;21.10;99.90;;;21.45;80.11;100233.09;5051266;28;20011;-84
2023/09/12 08:11:00;;;;;;;11.75;5.18;;;21.10;99.90;;;21.45;79.64;100233.09;5042593;28;20124;-84
2023/09/12 08:13:28;;;;;;;12.75;4.50;;;21.10;99.90;;;21.45;79.09;100237.72;5051708;28;20037;-85
2023/09/12 08:15:56;;;;;;;9.45;5.18;;;21.00;99.90;;;21.45;79.15;100233.09;5050449;28;20585;-84
2023/09/12 08:18:27;;;;;;;12.15;4.25;;;21.00;99.90;;;21.45;79.08;100249.38;5057541;28;20036;-84
2023/09/12 08:20:55;;;;;;;;;;;21.00;99.90;;;21.41;78.27;100247.53;5042277;28;20063;-85
2023/09/12 08:23:23;;;;;;;7.50;3.83;;;21.00;99.90;;;21.38;78.14;100253.56;5051900;28;20381;-86
2023/09/12 08:25:51;;;;;;;7.93;4.28;;;20.90;99.90;;;21.39;78.12;100257.88;5036436;28;20390;-86
2023/09/12 08:28:18;;;;;;;9.82;4.50;;;21.00;99.90;;;21.42;77.95;100252.66;5044362;28;20858;-86
2023/09/12 08:30:46;;;;;;;10.23;4.70;;;21.00;99.90;;;21.44;78.53;100257.81;5058268;28;20124;-85
2023/09/12 08:33:13;;;;;;;8.10;3.90;;;21.00;99.90;;;21.43;77.98;100253.50;5043646;28;20030;-85
2023/09/12 08:35:40;;;;;;;8.07;4.65;;;21.00;99.90;;;21.47;78.16;100254.50;5052025;28;20819;-86
2023/09/12 08:38:09;;;;;;;9.50;4.75;;;21.10;99.90;;;21.53;78.80;100259.59;5056666;28;20413;-86
2023/09/12 08:43:12;;;;;;;9.60;5.65;;;21.20;99.90;;;21.66;80.01;100265.41;5933183;22;20068;-81
2023/09/12 08:45:39;;;;;;;11.40;5.93;;;21.30;99.90;;;21.69;79.07;100259.44;5022826;28;20084;-84
2023/09/12 08:48:08;;;;;;;13.75;5.85;;;21.30;99.90;;;21.72;79.03;100259.66;5026806;28;20049;-84
2023/09/12 08:50:35;;;;;;;9.32;6.38;;;21.40;99.90;;;21.79;79.35;100262.81;5028245;28;20078;-84
2023/09/12 08:53:03;;;;;;;10.70;6.28;;;21.50;99.90;;;21.85;79.72;100271.69;5013422;28;20430;-84
2023/09/12 08:55:33;;;;;;;15.85;6.80;;;21.60;99.90;;;21.87;79.61;100268.72;5019913;23;20042;-84
2023/09/12 08:58:03;;;;;;;11.05;6.60;;;21.60;99.90;;;21.89;79.80;100270.03;5037174;28;20049;-85
2023/09/12 09:00:30;;;;;;;11.00;7.25;;;21.70;99.90;;;;;;5037016;28;20088;-85
2023/09/12 09:02:58;;;;;;;13.38;7.60;;;21.70;99.90;;;21.97;79.50;100280.25;5031699;28;20136;-85
2023/09/12 09:05:28;;;;;;;12.48;6.88;;;21.80;99.90;;;21.98;79.00;100286.47;5015327;28;20144;-85
2023/09/12 09:07:56;;;;;;;9.10;6.30;;;21.80;99.90;;;22.00;77.94;100284.28;4996003;28;20050;-85
2023/09/12 09:10:26;;;;;;;9.02;6.13;;;21.80;99.90;;;22.04;78.64;100277.97;5014243;28;20053;-85
2023/09/12 09:12:54;;;;;;;9.95;5.60;;;21.90;99.90;;;22.12;79.98;100289.31;5022995;28;20096;-85
2023/09/12 09:15:27;;;;;;;10.68;6.95;;;22.00;99.90;;;22.03;76.57;100289.13;4996267;28;20052;-85
2023/09/12 09:17:55;;;;;;;8.18;6.25;;;21.90;99.90;;;22.05;76.53;100297.78;5016979;28;20046;-86
2023/09/12 09:20:28;;;;;;;10.65;6.70;;;21.90;99.90;;;22.12;78.28;100301.00;5017705;28;20037;-86
2023/09/12 09:23:04;;;;;;;10.48;6.75;;;22.00;99.90;;;22.15;77.14;100303.09;4999042;28;20069;-85
2023/09/12 09:25:32;;;;;;;12.07;7.45;;;22.00;99.90;;;22.12;76.55;100294.75;5017457;28;20554;-85
2023/09/12 09:28:04;;;;;;;13.32;7.63;;;22.00;99.90;;;22.20;80.43;100311.19;4996476;28;20494;-86
2023/09/12 09:30:44;;;;;;;12.45;7.05;;;22.10;99.90;;;22.30;81.32;100307.53;5015478;28;20046;-85
2023/09/12 09:33:13;;;;;;;11.43;7.13;;;22.20;99.90;;;22.30;76.88;100312.97;5031527;28;20429;-85
2023/09/12 09:35:42;;;;;;;9.82;6.90;;;22.30;99.90;;;22.33;77.94;100307.75;5008506;28;20038;-85
2023/09/12 09:38:16;;;;;;;9.13;6.47;;;22.30;99.90;;;22.38;78.11;100308.78;4995974;28;20073;-85
2023/09/12 09:40:43;;;;;;;11.02;7.05;;;22.30;99.90;;;22.48;81.01;100314.88;5007625;28;20052;-85
2023/09/12 09:43:14;;;;;;;10.30;6.93;;;22.50;99.90;;;22.57;82.46;100318.56;5016758;28;20034;-85
2023/09/12 09:45:46;;;;;;;7.93;5.55;;;22.60;99.90;;;22.59;79.67;100310.94;4991602;28;20038;-86
2023/09/12 09:48:20;;;;;;;6.80;4.97;;;22.70;99.90;;;22.55;76.44;100309.09;4995647;28;20077;-86
2023/09/12 09:50:48;;;;;;;8.80;4.70;;;22.70;99.90;;;22.59;76.95;100299.22;5010226;28;20069;-85
2023/09/12 09:53:15;;;;;;;7.43;4.13;;;22.70;99.90;;;22.59;74.76;100301.94;5015513;28;20108;-85
2023/09/12 09:55:43;;;;;;;6.15;4.18;;;22.60;99.90;;;22.60;74.72;100309.81;5016545;28;20050;-85
2023/09/12 09:58:16;;;;;;;8.93;4.57;;;22.60;99.90;;;22.68;77.67;100313.75;5003015;28;20045;-85
2023/09/12 10:00:44;;;;;;;6.25;4.07;;;22.70;99.90;;;22.73;78.13;100315.59;4991585;28;20518;-86
2023/09/12 10:03:13;;;;;;;14.73;4.95;;;22.70;99.90;;;22.63;73.59;100311.94;4997653;28;20042;-86
2023/09/12 10:05:43;;;;;;;7.25;4.53;;;22.70;99.90;;;22.64;75.01;100307.28;5016654;28;20125;-85
2023/09/12 10:08:16;;;;;;;7.82;3.38;;;22.70;99.90;;;22.59;73.18;100300.06;5016685;28;20042;-86
2023/09/12 10:10:44;;;;;;;5.65;3.30;;;22.70;99.90;;;22.67;73.33;100305.91;5009803;28;20038;-85
2023/09/12 10:13:15;;;;;;;6.72;3.60;;;22.70;99.90;;;22.71;72.51;100309.66;5016433;28;20072;-85